Time;durP1;ratioP1;P1;durP2;ratioP2;P2;SDS_P1;SDS_P2;PMS_P1;PMS_P2;Temp;Humidity;BMP_temperature;BMP_pressure;BME280_temperature;BME280_humidity;BME280_pressure;Samples;Min_cycle;Max_cycle;Signal;HPM_P1;HPM_P2
2023/03/18 00:01:07;;;;;;;7.55;3.50;;;13.80;56.80;;;;;;4998747;28;20112;-50
2023/03/18 00:03:36;;;;;;;9.07;3.50;;;13.80;57.00;;;;;;5000043;28;20111;-44
2023/03/18 00:06:06;;;;;;;11.27;3.58;;;13.70;57.20;;;;;;4999419;28;20145;-48
2023/03/18 00:08:34;;;;;;;7.82;3.53;;;13.70;57.20;;;;;;5001037;28;20057;-45
2023/03/18 00:11:04;;;;;;;6.65;3.03;;;13.70;57.20;;;;;;4991342;28;20045;-45
2023/03/18 00:13:33;;;;;;;8.88;3.65;;;13.70;57.40;;;;;;5000765;28;20049;-47
2023/03/18 00:16:01;;;;;;;11.73;3.80;;;13.70;57.40;;;;;;5000248;28;20049;-45
2023/03/18 00:18:29;;;;;;;8.85;3.33;;;13.70;57.40;;;;;;4999950;28;20050;-47
2023/03/18 00:20:57;;;;;;;8.95;3.80;;;13.70;57.50;;;;;;4992838;28;20053;-50
2023/03/18 00:23:25;;;;;;;10.38;3.97;;;13.70;57.70;;;;;;5000890;28;20056;-45
2023/03/18 00:25:53;;;;;;;11.82;4.15;;;13.70;57.80;;;;;;4997410;28;20054;-46
2023/03/18 00:28:22;;;;;;;10.32;4.80;;;13.70;57.80;;;;;;5000496;28;20050;-46
2023/03/18 00:30:50;;;;;;;8.00;4.70;;;13.70;57.80;;;;;;4996195;28;20061;-44
2023/03/18 00:33:18;;;;;;;13.50;5.38;;;13.70;57.80;;;;;;5000385;28;20490;-47
2023/03/18 00:35:46;;;;;;;10.70;4.72;;;13.70;57.80;;;;;;5000074;28;20054;-46
2023/03/18 00:38:49;;;;;;;10.20;4.90;;;13.60;57.90;;;;;;5001390;28;20054;-48
2023/03/18 00:41:17;;;;;;;8.40;4.90;;;13.60;58.20;;;;;;4994817;28;20049;-45
2023/03/18 00:43:51;;;;;;;11.38;5.18;;;13.70;58.10;;;;;;5000108;28;20061;-44
2023/03/18 00:46:21;;;;;;;11.20;5.13;;;13.70;58.10;;;;;;5000538;28;20490;-47
2023/03/18 00:48:48;;;;;;;9.30;4.63;;;13.60;58.10;;;;;;5000173;28;20126;-44
2023/03/18 00:51:16;;;;;;;11.10;5.22;;;13.70;58.10;;;;;;4996118;28;20060;-44
2023/03/18 00:53:45;;;;;;;13.98;5.35;;;13.60;58.10;;;;;;4999495;28;20065;-47
2023/03/18 00:56:13;;;;;;;13.00;5.50;;;13.60;58.10;;;;;;4998664;28;20054;-45
2023/03/18 00:58:40;;;;;;;10.63;5.25;;;13.60;58.20;;;;;;5000448;28;20072;-50
2023/03/18 01:01:11;;;;;;;6.65;4.47;;;13.60;58.30;;;;;;4995908;28;20054;-45
2023/03/18 01:03:41;;;;;;;9.27;5.38;;;13.60;58.20;;;;;;4999183;28;20054;-47
2023/03/18 01:06:10;;;;;;;9.80;4.90;;;13.60;58.20;;;;;;4999700;28;20046;-45
2023/03/18 01:08:37;;;;;;;10.43;4.90;;;13.70;58.20;;;;;;4996729;28;20050;-44
2023/03/18 01:11:05;;;;;;;15.55;6.50;;;13.70;58.20;;;;;;4997194;28;20057;-49
2023/03/18 01:13:33;;;;;;;10.95;5.38;;;13.70;58.30;;;;;;4999560;28;20046;-45
2023/03/18 01:16:00;;;;;;;11.38;5.38;;;13.70;58.50;;;;;;4999995;28;20050;-45
2023/03/18 01:18:29;;;;;;;9.82;5.13;;;13.70;58.50;;;;;;4996916;28;20056;-43
2023/03/18 01:20:57;;;;;;;7.10;4.47;;;13.70;58.50;;;;;;4997732;28;20061;-48
2023/03/18 01:23:24;;;;;;;10.18;5.07;;;13.70;58.40;;;;;;4999898;28;20057;-46
2023/03/18 01:25:52;;;;;;;11.65;5.40;;;13.70;58.30;;;;;;4994429;28;20057;-44
2023/03/18 01:28:21;;;;;;;9.23;4.90;;;13.70;58.50;;;;;;4998178;28;20057;-44
2023/03/18 01:30:48;;;;;;;10.98;5.82;;;13.70;58.50;;;;;;5002329;28;20050;-48
2023/03/18 01:33:17;;;;;;;9.85;5.53;;;13.70;58.50;;;;;;5004039;28;20410;-50
2023/03/18 01:35:46;;;;;;;10.73;5.63;;;13.70;58.60;;;;;;5000550;28;20072;-46
2023/03/18 01:38:14;;;;;;;9.82;5.35;;;13.70;58.60;;;;;;5005106;28;20056;-45
2023/03/18 01:40:41;;;;;;;12.43;5.50;;;13.70;58.60;;;;;;5000318;28;20053;-44
2023/03/18 01:43:14;;;;;;;11.13;5.05;;;13.70;58.60;;;;;;5002908;28;20064;-48
2023/03/18 01:45:45;;;;;;;10.93;5.43;;;13.70;58.70;;;;;;4999809;28;20066;-50
2023/03/18 01:48:16;;;;;;;8.93;4.82;;;13.70;58.70;;;;;;4999535;28;20054;-45
2023/03/18 01:50:47;;;;;;;13.02;5.43;;;13.70;58.60;;;;;;5002143;28;20160;-52
2023/03/18 01:53:17;;;;;;;9.50;5.75;;;13.70;58.70;;;;;;5000524;28;20049;-47
2023/03/18 01:55:47;;;;;;;7.90;4.50;;;13.70;58.70;;;;;;4999609;28;20068;-45
2023/03/18 01:58:19;;;;;;;12.05;4.93;;;13.70;58.60;;;;;;5002957;28;20490;-47
2023/03/18 02:00:52;;;;;;;8.98;4.50;;;13.70;58.70;;;;;;4999160;28;20718;-46
2023/03/18 02:03:21;;;;;;;10.88;5.50;;;13.70;58.70;;;;;;5002843;28;20054;-52
2023/03/18 02:05:50;;;;;;;11.23;5.07;;;13.70;58.70;;;;;;4995231;28;20053;-49
2023/03/18 02:08:18;;;;;;;8.90;4.57;;;13.70;58.70;;;;;;5003165;28;20042;-48
2023/03/18 02:10:46;;;;;;;8.57;5.07;;;13.60;58.60;;;;;;5001752;28;20065;-51
2023/03/18 02:13:14;;;;;;;9.10;4.43;;;13.60;58.60;;;;;;5000447;28;20061;-51
2023/03/18 02:15:51;;;;;;;10.50;4.80;;;13.60;58.60;;;;;;5002906;28;20042;-51
2023/03/18 02:18:22;;;;;;;13.50;5.63;;;13.60;58.60;;;;;;5002692;28;20057;-49
2023/03/18 02:21:03;;;;;;;14.25;5.25;;;13.60;58.60;;;;;;4999856;28;20327;-49
2023/03/18 02:23:41;;;;;;;8.82;4.53;;;13.60;58.70;;;;;;5002176;28;20057;-49
2023/03/18 02:26:20;;;;;;;12.63;5.20;;;13.60;58.50;;;;;;5000283;28;20058;-48
2023/03/18 02:28:51;;;;;;;9.25;4.45;;;13.60;58.50;;;;;;5001038;28;20405;-50
2023/03/18 02:31:19;;;;;;;10.43;5.25;;;13.60;58.40;;;;;;5001864;28;20064;-50
2023/03/18 02:33:47;;;;;;;10.32;5.00;;;13.60;58.40;;;;;;5002873;28;20402;-50
2023/03/18 02:36:19;;;;;;;8.20;5.13;;;13.50;58.40;;;;;;5001916;28;21161;-51
2023/03/18 02:38:47;;;;;;;10.43;6.07;;;13.50;58.40;;;;;;4997635;28;20054;-53
2023/03/18 02:41:15;;;;;;;8.95;4.55;;;13.50;58.40;;;;;;4998933;28;20532;-53
2023/03/18 02:43:42;;;;;;;9.48;4.68;;;13.50;58.40;;;;;;5002957;28;20061;-51
2023/03/18 02:46:29;;;;;;;11.45;4.75;;;13.50;58.40;;;;;;5001895;28;20062;-51
2023/03/18 02:48:58;;;;;;;7.95;4.60;;;13.40;58.50;;;;;;4999497;28;20049;-49
2023/03/18 02:51:26;;;;;;;10.32;5.45;;;13.40;58.30;;;;;;5002205;28;20398;-51
2023/03/18 02:53:58;;;;;;;10.93;5.15;;;13.40;58.30;;;;;;5001772;28;20470;-52
2023/03/18 02:56:25;;;;;;;9.48;4.90;;;13.40;58.40;;;;;;4998116;28;20054;-53
2023/03/18 02:59:36;;;;;;;7.80;4.72;;;13.40;58.50;;;;;;4999599;28;20054;-52
2023/03/18 03:02:05;;;;;;;8.38;4.68;;;13.40;58.70;;;;;;5001018;28;20069;-51
2023/03/18 03:04:32;;;;;;;7.85;4.38;;;13.40;58.60;;;;;;5002306;28;20042;-53
2023/03/18 03:07:00;;;;;;;12.32;4.93;;;13.30;58.70;;;;;;4997657;28;20481;-52
2023/03/18 03:09:27;;;;;;;8.23;4.22;;;13.30;58.80;;;;;;5000630;28;20072;-53
2023/03/18 03:11:55;;;;;;;8.15;4.25;;;13.30;58.80;;;;;;4993400;28;20065;-49
2023/03/18 03:14:22;;;;;;;8.82;4.72;;;13.30;58.80;;;;;;4996284;28;20425;-51
2023/03/18 03:16:49;;;;;;;8.80;3.95;;;13.30;58.80;;;;;;5001856;28;20498;-50
2023/03/18 03:19:17;;;;;;;11.00;4.88;;;13.30;58.90;;;;;;5001026;28;20050;-52
2023/03/18 03:21:44;;;;;;;9.05;4.07;;;13.30;58.80;;;;;;4998597;28;20050;-48
2023/03/18 03:25:01;;;;;;;5.75;3.20;;;13.30;58.80;;;;;;5001795;28;20065;-52
2023/03/18 03:27:28;;;;;;;8.65;3.65;;;13.30;58.90;;;;;;4998240;28;20042;-52
2023/03/18 03:29:56;;;;;;;4.90;3.72;;;13.30;58.60;;;;;;4997438;28;20058;-49
2023/03/18 03:32:23;;;;;;;10.35;3.88;;;13.30;58.70;;;;;;5002159;28;20065;-49
2023/03/18 03:34:52;;;;;;;6.50;3.42;;;13.30;58.70;;;;;;5001296;28;20053;-52
2023/03/18 03:37:19;;;;;;;8.50;3.65;;;13.30;58.80;;;;;;5000297;28;20049;-52
2023/03/18 03:39:47;;;;;;;9.20;3.70;;;13.30;58.70;;;;;;5002733;28;20057;-51
2023/03/18 03:42:15;;;;;;;6.43;3.25;;;13.30;58.80;;;;;;5000456;28;20161;-53
2023/03/18 03:44:42;;;;;;;8.90;3.72;;;13.30;58.90;;;;;;5002175;28;20054;-53
2023/03/18 03:47:10;;;;;;;7.55;3.97;;;13.20;58.80;;;;;;5001808;28;20053;-53
2023/03/18 03:49:37;;;;;;;9.25;3.78;;;13.20;59.30;;;;;;4999758;28;20402;-52
2023/03/18 03:52:11;;;;;;;7.05;4.20;;;13.20;58.80;;;;;;4999202;28;20054;-51
2023/03/18 03:54:40;;;;;;;6.50;3.47;;;13.20;58.90;;;;;;5000542;28;20401;-46
2023/03/18 03:57:07;;;;;;;7.53;3.28;;;13.20;58.80;;;;;;4999543;28;20057;-46
2023/03/18 03:59:35;;;;;;;7.50;3.00;;;13.20;59.30;;;;;;4999649;28;20066;-45
2023/03/18 04:02:02;;;;;;;8.18;3.70;;;13.20;58.90;;;;;;5000631;28;20062;-45
2023/03/18 04:04:29;;;;;;;10.82;3.28;;;13.20;59.00;;;;;;5000552;28;20046;-49
2023/03/18 04:06:57;;;;;;;8.30;3.05;;;13.20;59.00;;;;;;4990941;28;21990;-50
2023/03/18 04:09:25;;;;;;;8.38;3.58;;;13.10;59.00;;;;;;4999345;28;20053;-45
2023/03/18 04:11:52;;;;;;;10.65;3.80;;;13.10;59.00;;;;;;4999037;28;20057;-45
2023/03/18 04:14:20;;;;;;;7.53;2.97;;;13.10;59.00;;;;;;5001786;28;20509;-45
2023/03/18 04:16:47;;;;;;;7.75;3.35;;;13.10;59.10;;;;;;4999720;28;20061;-47
2023/03/18 04:19:15;;;;;;;7.55;3.28;;;13.10;59.20;;;;;;4998730;28;20065;-51
2023/03/18 04:21:42;;;;;;;8.93;3.10;;;13.10;59.10;;;;;;4999683;28;20501;-48
2023/03/18 04:24:10;;;;;;;8.73;3.03;;;13.10;59.20;;;;;;5002120;28;20069;-47
2023/03/18 04:26:39;;;;;;;8.75;4.03;;;13.10;59.20;;;;;;5001353;28;20390;-47
2023/03/18 04:29:07;;;;;;;12.23;3.88;;;13.10;59.30;;;;;;5001653;28;20061;-44
2023/03/18 04:31:35;;;;;;;14.75;3.40;;;13.10;59.30;;;;;;4999705;28;20046;-46
2023/03/18 04:34:02;;;;;;;7.00;3.22;;;13.10;59.30;;;;;;4998327;28;20057;-45
2023/03/18 04:36:29;;;;;;;6.40;3.05;;;13.10;59.20;;;;;;4998734;28;20076;-45
2023/03/18 04:38:57;;;;;;;9.50;3.13;;;13.10;59.40;;;;;;5000238;28;20054;-46
2023/03/18 04:41:24;;;;;;;10.90;3.03;;;13.10;59.40;;;;;;4999079;28;20064;-44
2023/03/18 04:43:53;;;;;;;4.93;2.70;;;13.00;59.30;;;;;;5000952;28;20064;-46
2023/03/18 04:46:20;;;;;;;8.82;3.25;;;13.00;59.20;;;;;;4995529;28;20072;-48
2023/03/18 04:48:48;;;;;;;5.32;2.40;;;13.00;59.10;;;;;;4998598;28;20077;-47
2023/03/18 04:51:15;;;;;;;4.68;2.50;;;13.00;59.10;;;;;;4999650;28;20528;-47
2023/03/18 04:53:42;;;;;;;5.68;2.47;;;13.00;59.10;;;;;;4989069;28;20050;-46
2023/03/18 04:56:09;;;;;;;28.38;11.32;;;13.00;59.50;;;;;;4992646;28;20524;-45
2023/03/18 04:58:37;;;;;;;9.52;4.30;;;13.00;59.00;;;;;;5000003;28;20064;-50
2023/03/18 05:01:05;;;;;;;16.00;7.53;;;13.00;58.90;;;;;;4998201;28;20054;-48
2023/03/18 05:03:32;;;;;;;10.93;3.78;;;13.10;58.90;;;;;;4997564;28;20520;-52
2023/03/18 05:06:00;;;;;;;7.28;2.75;;;13.00;58.80;;;;;;4990228;28;20062;-52
2023/03/18 05:08:27;;;;;;;9.52;2.65;;;13.00;58.80;;;;;;4995753;28;20057;-51
2023/03/18 05:10:54;;;;;;;7.03;2.85;;;13.00;58.80;;;;;;4994660;28;20050;-51
2023/03/18 05:13:22;;;;;;;4.88;2.42;;;13.00;58.80;;;;;;4994078;28;20061;-48
2023/03/18 05:15:50;;;;;;;7.35;2.28;;;13.00;58.70;;;;;;4995797;28;20553;-53
2023/03/18 05:18:19;;;;;;;4.45;2.33;;;13.00;58.60;;;;;;4995325;28;20053;-52
2023/03/18 05:20:47;;;;;;;4.95;2.50;;;13.00;58.60;;;;;;4993582;28;20058;-52
2023/03/18 05:23:14;;;;;;;5.63;2.35;;;13.00;58.50;;;;;;4998205;28;20406;-49
2023/03/18 05:25:41;;;;;;;6.53;2.40;;;13.00;58.40;;;;;;4995531;28;20054;-50
2023/03/18 05:28:09;;;;;;;6.93;2.35;;;13.00;58.40;;;;;;4996354;28;20054;-53
2023/03/18 05:30:38;;;;;;;4.38;2.30;;;13.00;58.30;;;;;;4995386;28;20049;-50
2023/03/18 05:33:05;;;;;;;15.18;6.05;;;13.00;58.30;;;;;;4998859;28;20054;-50
2023/03/18 05:35:35;;;;;;;9.23;3.40;;;13.00;58.20;;;;;;4997505;28;20493;-52
2023/03/18 05:38:02;;;;;;;5.97;2.80;;;13.00;58.20;;;;;;4990940;28;20068;-52
2023/03/18 05:40:30;;;;;;;6.55;2.42;;;12.90;58.00;;;;;;4998045;28;20452;-51
2023/03/18 05:42:57;;;;;;;5.43;2.30;;;12.90;58.00;;;;;;4995066;28;20058;-51
2023/03/18 05:45:24;;;;;;;5.70;2.28;;;12.90;58.00;;;;;;4997676;28;20072;-51
2023/03/18 05:47:52;;;;;;;3.97;2.15;;;12.90;57.90;;;;;;4991893;28;20081;-51
2023/03/18 05:50:28;;;;;;;5.68;2.60;;;12.90;57.90;;;;;;4992141;28;20516;-50
2023/03/18 05:52:57;;;;;;;6.82;2.60;;;12.90;57.90;;;;;;4990755;28;20065;-52
2023/03/18 05:55:25;;;;;;;5.43;2.47;;;12.90;57.90;;;;;;4988654;28;20062;-50
2023/03/18 05:57:53;;;;;;;6.07;2.78;;;12.90;57.90;;;;;;4997295;28;20057;-53
2023/03/18 06:00:20;;;;;;;5.57;2.55;;;12.80;57.90;;;;;;4998712;28;20050;-51
2023/03/18 06:02:48;;;;;;;5.88;2.42;;;12.80;57.90;;;;;;4995241;28;20061;-52
2023/03/18 06:05:17;;;;;;;5.13;2.53;;;12.80;57.90;;;;;;4996765;28;20052;-52
2023/03/18 06:07:45;;;;;;;7.40;2.80;;;12.80;57.90;;;;;;4995828;28;20054;-52
2023/03/18 06:10:14;;;;;;;5.90;1.95;;;12.80;58.00;;;;;;4997439;28;20049;-51
2023/03/18 06:12:43;;;;;;;6.80;2.47;;;12.80;58.00;;;;;;4995901;28;20062;-49
2023/03/18 06:15:13;;;;;;;5.45;2.55;;;12.80;58.10;;;;;;4981972;28;20077;-52
2023/03/18 06:17:40;;;;;;;7.50;2.72;;;12.80;58.20;;;;;;5001105;28;20054;-50
2023/03/18 06:20:11;;;;;;;4.70;2.40;;;12.80;58.20;;;;;;4999055;28;21203;-50
2023/03/18 06:22:38;;;;;;;7.13;2.95;;;12.80;58.30;;;;;;4997899;28;20506;-51
2023/03/18 06:25:07;;;;;;;6.75;2.90;;;12.80;58.30;;;;;;4999112;28;20060;-52
2023/03/18 06:27:36;;;;;;;4.40;2.25;;;12.80;58.40;;;;;;4997754;28;20261;-51
2023/03/18 06:30:04;;;;;;;6.22;2.95;;;12.80;58.50;;;;;;5002023;28;20050;-48
2023/03/18 06:32:32;;;;;;;4.72;2.35;;;12.80;58.50;;;;;;4999298;28;20058;-50
2023/03/18 06:35:00;;;;;;;12.32;3.17;;;12.80;58.60;;;;;;4999176;28;20057;-48
2023/03/18 06:37:27;;;;;;;5.72;2.53;;;12.80;58.60;;;;;;4998387;28;20064;-50
2023/03/18 06:39:54;;;;;;;5.15;2.35;;;12.90;58.60;;;;;;5000970;28;20060;-52
2023/03/18 06:42:22;;;;;;;5.05;3.03;;;12.90;58.70;;;;;;4996208;28;20053;-51
2023/03/18 06:44:50;;;;;;;6.65;2.40;;;12.90;58.70;;;;;;5001998;28;20057;-51
2023/03/18 06:47:18;;;;;;;7.88;2.72;;;12.90;58.70;;;;;;4998336;28;20064;-49
2023/03/18 06:49:47;;;;;;;8.48;2.60;;;13.00;58.70;;;;;;5001392;28;20054;-51
2023/03/18 06:52:14;;;;;;;8.77;3.20;;;13.00;58.70;;;;;;4997445;28;20049;-52
2023/03/18 06:54:41;;;;;;;6.15;2.85;;;13.00;58.70;;;;;;5000459;28;20512;-52
2023/03/18 06:57:09;;;;;;;5.90;2.50;;;13.00;58.60;;;;;;4996064;28;20062;-52
2023/03/18 06:59:36;;;;;;;5.22;2.72;;;13.10;58.60;;;;;;4998363;28;20421;-50
2023/03/18 07:02:07;;;;;;;9.23;2.85;;;13.10;58.50;;;;;;4991329;28;20069;-53
2023/03/18 07:04:34;;;;;;;7.57;3.25;;;13.20;58.80;;;;;;4998366;28;20516;-53
2023/03/18 07:07:02;;;;;;;7.20;2.80;;;13.20;58.50;;;;;;4999048;28;20481;-50
2023/03/18 07:09:30;;;;;;;5.68;2.78;;;13.30;58.50;;;;;;4995057;28;20050;-50
2023/03/18 07:11:57;;;;;;;7.68;2.60;;;13.30;58.40;;;;;;4993535;28;20054;-51
2023/03/18 07:14:24;;;;;;;7.25;3.03;;;13.40;58.50;;;;;;4995509;28;20061;-51
2023/03/18 07:16:51;;;;;;;5.10;2.80;;;13.30;58.40;;;;;;4999076;28;20049;-52
2023/03/18 07:19:20;;;;;;;7.28;2.80;;;13.40;58.30;;;;;;4997431;28;20062;-51
2023/03/18 07:21:48;;;;;;;9.98;2.85;;;13.40;58.20;;;;;;4995950;28;20054;-52
2023/03/18 07:24:16;;;;;;;11.30;3.25;;;13.50;58.30;;;;;;5000885;28;20049;-53
2023/03/18 07:27:39;;;;;;;11.63;2.60;;;13.50;58.30;;;;;;4997272;28;20056;-53
2023/03/18 07:30:08;;;;;;;17.13;7.40;;;13.60;58.30;;;;;;4997002;28;20053;-51
2023/03/18 07:32:37;;;;;;;23.75;13.05;;;13.60;58.10;;;;;;5000927;28;20049;-51
2023/03/18 07:35:07;;;;;;;10.32;5.75;;;13.70;58.00;;;;;;4999884;28;20054;-51
2023/03/18 07:37:34;;;;;;;8.60;4.43;;;13.70;58.00;;;;;;4999760;28;20056;-49
2023/03/18 07:40:02;;;;;;;7.47;3.38;;;13.80;58.00;;;;;;4994970;28;20157;-50
2023/03/18 07:42:30;;;;;;;4.88;2.75;;;13.80;57.90;;;;;;4996447;28;20054;-51
2023/03/18 07:44:57;;;;;;;9.00;3.17;;;13.90;57.70;;;;;;4999231;28;20056;-51
2023/03/18 07:47:25;;;;;;;8.88;3.22;;;13.90;57.70;;;;;;5000582;28;20058;-52
2023/03/18 07:49:53;;;;;;;8.13;2.65;;;13.90;57.50;;;;;;4995516;28;20077;-49
2023/03/18 07:52:22;;;;;;;7.53;2.90;;;14.00;57.60;;;;;;4999423;28;20053;-51
2023/03/18 07:54:49;;;;;;;6.47;2.50;;;14.00;57.50;;;;;;4994668;28;21628;-50
2023/03/18 07:57:17;;;;;;;5.72;2.60;;;14.10;57.50;;;;;;4996528;28;20050;-48
2023/03/18 07:59:44;;;;;;;6.50;2.72;;;14.10;57.40;;;;;;4999977;28;20057;-48
2023/03/18 08:02:13;;;;;;;4.10;2.70;;;14.10;57.30;;;;;;4998172;28;20053;-51
2023/03/18 08:04:40;;;;;;;7.95;2.63;;;14.20;57.70;;;;;;4996751;28;21433;-52
2023/03/18 08:07:07;;;;;;;6.72;2.90;;;14.30;57.10;;;;;;4995355;28;20049;-51
2023/03/18 08:09:36;;;;;;;4.63;2.80;;;14.30;57.20;;;;;;4999301;28;20069;-48
2023/03/18 08:12:04;;;;;;;4.05;1.83;;;14.40;57.10;;;;;;4997255;28;20049;-50
2023/03/18 08:14:31;;;;;;;7.18;2.20;;;14.40;57.00;;;;;;4995502;28;20050;-52
2023/03/18 08:16:58;;;;;;;9.48;2.78;;;14.40;56.90;;;;;;4992124;28;20054;-51
2023/03/18 08:19:25;;;;;;;6.75;2.10;;;14.50;57.00;;;;;;4997941;28;20057;-51
2023/03/18 08:21:53;;;;;;;4.25;2.28;;;14.50;57.10;;;;;;4994323;28;20053;-51
2023/03/18 08:24:20;;;;;;;4.85;2.30;;;14.60;57.00;;;;;;4996805;28;20054;-49
2023/03/18 08:26:48;;;;;;;6.80;2.33;;;14.70;57.40;;;;;;4998985;28;20084;-50
2023/03/18 08:29:16;;;;;;;4.82;2.45;;;14.70;56.80;;;;;;4998786;28;20056;-51
2023/03/18 08:31:43;;;;;;;8.82;2.17;;;14.80;56.60;;;;;;4994387;28;20533;-50
2023/03/18 08:34:10;;;;;;;4.65;2.08;;;14.80;56.60;;;;;;4998926;28;20046;-51
2023/03/18 08:36:37;;;;;;;7.57;2.22;;;14.90;56.70;;;;;;5000159;28;20061;-50
2023/03/18 08:39:04;;;;;;;3.25;2.08;;;15.00;56.60;;;;;;4995818;28;20152;-51
2023/03/18 08:41:32;;;;;;;7.43;2.17;;;15.00;56.30;;;;;;4997446;28;20057;-51
2023/03/18 08:44:01;;;;;;;5.05;2.53;;;15.10;56.20;;;;;;4998179;28;20060;-49
2023/03/18 08:46:29;;;;;;;5.85;2.40;;;15.10;55.90;;;;;;4997511;28;20049;-52
2023/03/18 08:48:56;;;;;;;6.72;1.92;;;15.20;55.80;;;;;;4997400;28;20065;-50
2023/03/18 08:51:24;;;;;;;3.90;1.98;;;15.20;55.70;;;;;;4998745;28;20053;-50
2023/03/18 08:53:51;;;;;;;3.55;1.95;;;15.30;55.80;;;;;;4997748;28;20575;-51
2023/03/18 08:56:19;;;;;;;6.55;1.98;;;15.30;55.60;;;;;;4998626;28;20066;-51
2023/03/18 08:58:47;;;;;;;5.07;2.10;;;15.30;55.60;;;;;;4993895;28;20503;-52
2023/03/18 09:01:15;;;;;;;8.80;2.25;;;15.40;55.60;;;;;;4998773;28;20485;-51
2023/03/18 09:03:43;;;;;;;5.50;1.55;;;15.50;55.60;;;;;;4995326;28;20062;-51
2023/03/18 09:06:10;;;;;;;7.05;2.10;;;15.50;55.50;;;;;;4998385;28;20054;-53
2023/03/18 09:08:38;;;;;;;7.13;2.30;;;15.60;55.40;;;;;;4998386;28;20061;-52
2023/03/18 09:11:06;;;;;;;7.60;1.90;;;15.60;55.40;;;;;;4993754;28;20426;-52
2023/03/18 09:13:34;;;;;;;5.80;2.00;;;15.70;55.20;;;;;;4994728;28;20057;-50
2023/03/18 09:16:01;;;;;;;6.63;2.00;;;15.80;55.10;;;;;;4998128;28;20054;-53
2023/03/18 09:18:31;;;;;;;5.05;1.83;;;15.90;55.00;;;;;;4998040;28;20053;-49
2023/03/18 09:20:58;;;;;;;4.75;2.00;;;15.90;54.80;;;;;;4998265;28;20057;-52
2023/03/18 09:23:27;;;;;;;3.42;1.65;;;16.00;54.90;;;;;;4998457;28;20403;-51
2023/03/18 09:25:55;;;;;;;8.10;1.95;;;16.00;54.80;;;;;;4996495;28;20061;-53
2023/03/18 09:28:23;;;;;;;4.28;2.08;;;16.10;54.50;;;;;;4998077;28;20057;-50
2023/03/18 09:30:52;;;;;;;5.88;1.88;;;16.20;54.40;;;;;;4999202;28;20050;-49
2023/03/18 09:33:19;;;;;;;5.88;2.00;;;16.20;54.30;;;;;;4997980;28;20049;-48
2023/03/18 09:35:49;;;;;;;5.85;1.75;;;16.30;54.20;;;;;;4996682;28;20061;-52
2023/03/18 09:38:18;;;;;;;6.47;1.80;;;16.30;54.10;;;;;;4999484;28;20385;-49
2023/03/18 09:40:55;;;;;;;6.03;2.50;;;16.40;53.90;;;;;;4995095;28;20543;-50
2023/03/18 09:43:36;;;;;;;6.63;1.98;;;16.40;53.80;;;;;;4997663;28;20489;-50
2023/03/18 09:46:10;;;;;;;8.15;2.30;;;16.40;53.70;;;;;;4996059;28;20057;-50
2023/03/18 09:48:53;;;;;;;4.00;1.70;;;16.50;53.80;;;;;;4999426;28;20470;-53
2023/03/18 09:51:33;;;;;;;4.38;1.80;;;16.60;53.80;;;;;;5000473;28;20382;-51
2023/03/18 09:54:05;;;;;;;2.75;1.40;;;16.60;53.60;;;;;;5000324;28;20076;-50
2023/03/18 09:56:35;;;;;;;3.25;1.95;;;16.70;53.60;;;;;;5001307;28;20054;-53
2023/03/18 09:59:06;;;;;;;5.35;2.35;;;16.70;53.60;;;;;;5001171;28;20068;-51
2023/03/18 10:01:37;;;;;;;6.75;2.22;;;16.80;53.30;;;;;;4988989;28;20053;-49
2023/03/18 10:04:10;;;;;;;4.25;2.38;;;16.80;53.20;;;;;;5001021;28;20049;-53
2023/03/18 10:06:43;;;;;;;6.10;2.43;;;16.90;53.20;;;;;;5003172;28;20054;-53
2023/03/18 10:09:19;;;;;;;4.35;1.55;;;16.90;53.10;;;;;;4998372;28;20484;-50
2023/03/18 10:11:47;;;;;;;6.70;1.88;;;17.00;53.00;;;;;;4993460;28;20172;-52
2023/03/18 10:14:36;;;;;;;4.28;1.83;;;17.00;52.60;;;;;;4997084;28;20064;-53
2023/03/18 10:17:14;;;;;;;4.15;1.70;;;17.10;52.30;;;;;;5003815;28;20057;-52
2023/03/18 10:19:46;;;;;;;3.45;1.60;;;17.10;52.50;;;;;;5003957;28;20386;-51
2023/03/18 10:22:28;;;;;;;4.47;1.73;;;17.10;52.40;;;;;;5001208;28;20049;-49
2023/03/18 10:25:03;;;;;;;3.95;1.75;;;17.20;52.10;;;;;;5003585;28;20057;-52
2023/03/18 10:27:44;;;;;;;3.33;1.23;;;17.20;52.10;;;;;;5003256;28;20053;-50
2023/03/18 10:30:29;;;;;;;3.55;1.13;;;17.20;51.70;;;;;;5003290;28;20062;-45
2023/03/18 10:32:58;;;;;;;;;;;17.30;51.40;;;;;;5002935;28;20046;-47
2023/03/18 10:35:30;;;;;;;5.72;1.35;;;17.30;51.60;;;;;;5001793;28;19928;-46
2023/03/18 10:38:04;;;;;;;5.18;2.05;;;17.30;51.60;;;;;;5003883;28;20058;-47
2023/03/18 10:40:36;;;;;;;5.40;1.58;;;17.30;51.40;;;;;;5003207;28;20050;-49
2023/03/18 10:43:04;;;;;;;4.80;1.45;;;17.40;51.50;;;;;;5002920;28;20057;-46
2023/03/18 10:45:33;;;;;;;5.63;1.98;;;17.30;51.30;;;;;;5004606;28;20061;-45
2023/03/18 10:48:07;;;;;;;3.58;1.13;;;17.40;51.10;;;;;;5003179;28;20529;-44
2023/03/18 10:50:38;;;;;;;3.35;1.20;;;17.40;51.10;;;;;;4999383;28;20422;-45
2023/03/18 10:53:16;;;;;;;2.83;1.30;;;17.40;51.20;;;;;;4998050;28;20069;-48
2023/03/18 10:55:53;;;;;;;4.70;1.60;;;17.30;51.00;;;;;;4998290;28;20585;-45
2023/03/18 10:58:21;;;;;;;3.13;1.10;;;17.40;51.10;;;;;;5002171;28;20050;-47
2023/03/18 11:00:48;;;;;;;4.55;1.15;;;17.40;51.20;;;;;;5002605;28;20065;-48
2023/03/18 11:03:23;;;;;;;2.83;1.17;;;17.40;51.10;;;;;;5003459;28;20077;-47
2023/03/18 11:05:52;;;;;;;3.53;1.13;;;17.40;51.00;;;;;;4999166;28;20057;-45
2023/03/18 11:08:33;;;;;;;4.53;1.30;;;17.40;51.00;;;;;;5003074;28;20260;-43
2023/03/18 11:11:14;;;;;;;2.97;1.38;;;17.40;50.70;;;;;;5000494;28;20238;-48
2023/03/18 11:13:46;;;;;;;3.00;1.00;;;17.50;51.00;;;;;;4999137;28;20065;-46
2023/03/18 11:16:23;;;;;;;3.30;0.98;;;17.50;50.90;;;;;;5001549;28;20053;-46
2023/03/18 11:18:52;;;;;;;3.40;1.02;;;17.50;50.50;;;;;;5003714;28;20057;-44
2023/03/18 11:21:20;;;;;;;2.92;1.13;;;17.60;50.70;;;;;;4997900;28;20064;-45
2023/03/18 11:24:09;;;;;;;3.40;1.10;;;17.60;50.70;;;;;;5002825;28;20502;-50
2023/03/18 11:26:53;;;;;;;4.60;1.17;;;17.60;50.10;;;;;;5001547;28;20494;-45
2023/03/18 11:29:23;;;;;;;;;;;17.70;49.70;;;;;;5002893;28;20064;-44
2023/03/18 11:31:53;;;;;;;2.92;1.20;;;17.70;50.10;;;;;;5002855;28;19929;-47
2023/03/18 11:34:21;;;;;;;2.55;0.90;;;17.70;49.70;;;;;;5002717;28;20076;-44
2023/03/18 11:37:00;;;;;;;5.05;1.35;;;17.70;49.80;;;;;;5003275;28;20077;-44
2023/03/18 11:39:31;;;;;;;4.97;1.33;;;17.70;49.70;;;;;;5002800;28;20481;-47
2023/03/18 11:41:59;;;;;;;2.88;0.95;;;17.80;49.80;;;;;;5000312;28;20057;-44
2023/03/18 11:44:31;;;;;;;2.03;0.98;;;17.80;50.00;;;;;;5002492;28;20060;-44
2023/03/18 11:47:04;;;;;;;4.45;1.10;;;17.90;49.80;;;;;;4999994;28;20433;-49
2023/03/18 11:49:33;;;;;;;1.83;0.88;;;18.00;49.80;;;;;;4998248;28;20068;-46
2023/03/18 11:52:21;;;;;;;1.90;0.90;;;18.00;49.80;;;;;;5000186;28;20057;-47
2023/03/18 11:55:08;;;;;;;3.10;0.80;;;18.10;49.40;;;;;;5001305;28;20053;-44
2023/03/18 11:57:49;;;;;;;2.30;0.98;;;18.10;49.20;;;;;;5000919;28;20049;-45
2023/03/18 12:00:25;;;;;;;3.50;0.85;;;18.20;48.90;;;;;;5001231;28;20053;-44
2023/03/18 12:03:29;;;;;;;3.67;1.15;;;18.20;48.80;;;;;;5000924;28;20053;-45
2023/03/18 12:06:09;;;;;;;3.72;1.30;;;18.30;48.50;;;;;;4998316;28;20053;-45
2023/03/18 12:08:50;;;;;;;4.32;1.20;;;18.30;48.60;;;;;;4998356;28;20064;-48
2023/03/18 12:11:25;;;;;;;2.85;0.82;;;18.30;48.40;;;;;;5000375;28;20053;-48
2023/03/18 12:14:01;;;;;;;2.28;0.95;;;18.40;48.40;;;;;;5001745;28;20054;-50
2023/03/18 12:16:42;;;;;;;1.95;0.80;;;18.40;48.60;;;;;;5000157;28;20422;-47
2023/03/18 12:19:28;;;;;;;3.00;0.80;;;18.40;48.70;;;;;;4999849;28;20504;-46
2023/03/18 12:22:10;;;;;;;3.45;1.42;;;18.50;48.90;;;;;;4999706;28;20058;-45
2023/03/18 12:24:56;;;;;;;5.70;1.45;;;18.60;48.60;;;;;;4998691;28;20056;-45
2023/03/18 12:27:36;;;;;;;3.58;0.77;;;18.60;48.10;;;;;;5000072;28;20411;-44
2023/03/18 12:30:23;;;;;;;4.45;1.05;;;18.60;48.20;;;;;;4999081;28;20060;-43
2023/03/18 12:32:57;;;;;;;2.85;0.90;;;18.70;48.50;;;;;;5001792;28;20069;-51
2023/03/18 12:35:40;;;;;;;5.00;1.33;;;18.70;48.40;;;;;;4997592;28;20050;-53
2023/03/18 12:38:44;;;;;;;2.72;1.20;;;18.80;48.10;;;;;;4999193;28;20053;-52
2023/03/18 12:41:18;;;;;;;3.93;1.10;;;18.80;47.90;;;;;;4939285;28;20053;-50
2023/03/18 12:44:01;;;;;;;3.58;1.60;;;18.80;47.90;;;;;;5001300;28;20525;-54
2023/03/18 12:46:34;;;;;;;4.40;1.10;;;18.90;47.90;;;;;;4999504;28;20419;-53
2023/03/18 12:49:10;;;;;;;2.90;1.02;;;19.00;48.10;;;;;;5001657;28;20129;-51
2023/03/18 12:51:44;;;;;;;4.93;1.25;;;19.00;48.10;;;;;;5001948;28;20080;-51
2023/03/18 12:54:19;;;;;;;4.55;1.23;;;19.00;47.40;;;;;;4998941;28;20398;-53
2023/03/18 12:56:52;;;;;;;4.32;1.30;;;19.10;47.60;;;;;;4997631;28;20049;-50
2023/03/18 12:59:28;;;;;;;4.43;1.58;;;19.10;47.70;;;;;;5000130;28;20053;-54
2023/03/18 13:02:13;;;;;;;7.85;1.90;;;19.20;47.60;;;;;;4998117;28;20057;-51
2023/03/18 13:04:46;;;;;;;5.15;1.85;;;19.20;47.30;;;;;;5000389;28;20054;-51